Startpagina
METAR-TAF:

METAR-TAF

Vliegvelden :

Guilin, China

breedte: 25-20N, lengte: 110-18E, hoogte: 166 m

Actueel weer

Dit bericht is 32 minuten geleden gemaakt, om 16:00 UTC
Weinig wind
Temperatuur 27°C
Vochtigheid 89%
Druk 1006 hPa
Zicht 10 km of meer
geen wolken onder 1500 m en geen cumulonimbus

METAR: ZGKL 251600Z 00000MPS CAVOK 27/25 Q1006 NOSIG

Tijdstip: 00:32 (16:32 UTC)

Verwachting

Dit bericht is 7 uur en het 21 minuten geleden gemaakt, om 09:11 UTC
Verwachting geldig van 25 om 12 UTC tot 26 om 12 UTC
Wind 6 kt uit het zuidzuidoosten
Zicht 10 km of meer
Verspreide wolken op 4000 ft

TAF: ZGKL 250911Z 2512/2612 15003MPS 9999 SCT040 TX35/2608Z TN25/2522Z

Waarnemingen en weersverwachtingen van meer dan 4000 vliegvelden (METAR en TAF).

De beschikbare stations zijn de gele en rode punten op de kaart.

Ga met uw muis naar het station om de naam te zien.

Klik dan om waarnemingen en weersverwachtingen te zien.

kaart wijzigen: klik op de groene knoppen met een zwart kruis om in te zoomen, op de groene knop met een streepje om uit te zoomen of op de groene pijlen voor aangrenzende kaarten.


METAR-TAF: